createdAt,value
2023-01-30T00:01:42.254Z,-4.00
2023-01-30T00:04:13.012Z,-4.00
2023-01-30T00:06:41.739Z,-4.10
2023-01-30T00:09:14.814Z,-4.10
2023-01-30T00:11:42.594Z,-4.20
2023-01-30T00:14:10.188Z,-4.20
2023-01-30T00:16:37.433Z,-4.30
2023-01-30T00:19:04.741Z,-4.20
2023-01-30T00:21:31.962Z,-4.30
2023-01-30T00:24:00.959Z,-4.40
2023-01-30T00:26:28.303Z,-4.40
2023-01-30T00:28:55.502Z,-4.40
2023-01-30T00:31:22.815Z,-4.50
2023-01-30T00:33:49.913Z,-4.60
2023-01-30T00:36:17.493Z,-4.60
2023-01-30T00:38:44.789Z,-4.60
2023-01-30T00:41:13.699Z,-4.60
2023-01-30T00:43:59.779Z,-4.60
2023-01-30T00:46:49.716Z,-4.60
2023-01-30T00:49:17.221Z,-4.70
2023-01-30T00:51:44.442Z,-4.70
2023-01-30T00:54:11.831Z,-4.70
2023-01-30T00:56:39.354Z,-4.80
2023-01-30T00:59:06.501Z,-4.80
2023-01-30T01:01:37.971Z,-4.80
2023-01-30T01:04:06.889Z,-4.80
2023-01-30T01:06:34.777Z,-4.80
2023-01-30T01:09:01.942Z,-4.80
2023-01-30T01:11:29.082Z,-4.80
2023-01-30T01:14:02.049Z,-4.80
2023-01-30T01:16:31.158Z,-4.80
2023-01-30T01:19:02.346Z,-4.80
2023-01-30T01:21:29.755Z,-4.80
2023-01-30T01:24:00.129Z,-4.80
2023-01-30T01:26:27.845Z,-4.80
2023-01-30T01:28:59.266Z,-4.80
2023-01-30T01:31:26.938Z,-4.80
2023-01-30T01:33:54.117Z,-4.70
2023-01-30T01:36:49.956Z,-4.70
2023-01-30T01:39:09.080Z,-4.70
2023-01-30T01:41:36.241Z,-4.60
2023-01-30T01:44:09.919Z,-4.60
2023-01-30T01:46:57.561Z,-4.60
2023-01-30T01:49:37.213Z,-4.50
2023-01-30T01:52:15.612Z,-4.50
2023-01-30T01:55:00.879Z,-4.50
2023-01-30T01:58:05.744Z,-4.40
2023-01-30T02:00:33.075Z,-4.30
2023-01-30T02:03:06.710Z,-4.20
2023-01-30T02:05:38.586Z,-4.20
2023-01-30T02:08:29.068Z,-4.10
2023-01-30T02:11:21.406Z,-4.10
2023-01-30T02:13:50.708Z,-4.10
2023-01-30T02:16:18.374Z,-4.10
2023-01-30T02:18:46.932Z,-4.00
2023-01-30T02:22:08.568Z,-4.00
2023-01-30T02:24:57.067Z,-4.00
2023-01-30T02:28:17.551Z,-4.00
2023-01-30T02:31:03.341Z,-4.10
2023-01-30T02:34:11.652Z,-4.10
2023-01-30T02:37:14.970Z,-4.10
2023-01-30T02:40:12.958Z,-4.20
2023-01-30T02:43:15.836Z,-4.20
2023-01-30T02:46:00.003Z,-4.20
2023-01-30T02:48:44.795Z,-4.20
2023-01-30T02:51:24.135Z,-4.20
2023-01-30T02:53:51.705Z,-4.30
2023-01-30T02:56:20.292Z,-4.30
2023-01-30T02:58:54.763Z,-4.30
2023-01-30T03:01:51.748Z,-4.30
2023-01-30T03:05:01.023Z,-4.40
2023-01-30T03:08:13.187Z,-4.40
2023-01-30T03:10:49.524Z,-4.40
2023-01-30T03:13:50.531Z,-4.40
2023-01-30T03:16:31.646Z,-4.40
2023-01-30T03:19:01.722Z,-4.50
2023-01-30T03:21:29.111Z,-4.40
2023-01-30T03:23:56.509Z,-4.40
2023-01-30T03:26:30.707Z,-4.50
2023-01-30T03:28:58.473Z,-4.50
2023-01-30T03:31:25.791Z,-4.50
2023-01-30T03:33:53.164Z,-4.50
2023-01-30T03:36:20.630Z,-4.40
2023-01-30T03:38:52.413Z,-4.50
2023-01-30T03:41:20.297Z,-4.40
2023-01-30T03:43:47.414Z,-4.40
2023-01-30T03:46:14.550Z,-4.40
2023-01-30T03:48:45.152Z,-4.40
2023-01-30T03:51:12.746Z,-4.40
2023-01-30T03:53:39.936Z,-4.40
2023-01-30T03:56:07.142Z,-4.50
2023-01-30T03:58:34.271Z,-4.40
2023-01-30T04:01:01.507Z,-4.40
2023-01-30T04:03:28.663Z,-4.40
2023-01-30T04:05:56.032Z,-4.40
2023-01-30T04:08:26.882Z,-4.40
2023-01-30T04:10:54.141Z,-4.40
2023-01-30T04:13:24.717Z,-4.30
2023-01-30T04:15:52.169Z,-4.30
2023-01-30T04:18:19.390Z,-4.30
2023-01-30T04:20:46.696Z,-4.30
2023-01-30T04:23:13.917Z,-4.30
2023-01-30T04:25:41.173Z,-4.20
2023-01-30T04:28:08.388Z,-4.20
2023-01-30T04:30:35.709Z,-4.20
2023-01-30T04:33:02.880Z,-4.20
2023-01-30T04:35:32.976Z,-4.20
2023-01-30T04:38:00.153Z,-4.20
2023-01-30T04:40:27.354Z,-4.20
2023-01-30T04:42:54.672Z,-4.10
2023-01-30T04:45:22.018Z,-4.10
2023-01-30T04:47:49.252Z,-4.10
2023-01-30T04:50:16.563Z,-4.20
2023-01-30T04:52:43.673Z,-4.10
2023-01-30T04:55:10.998Z,-4.10
2023-01-30T04:57:38.196Z,-4.10
2023-01-30T05:00:06.430Z,-4.10
2023-01-30T05:02:33.767Z,-4.20
2023-01-30T05:05:01.012Z,-4.20
2023-01-30T05:07:28.138Z,-4.10
2023-01-30T05:09:55.381Z,-4.00
2023-01-30T05:12:22.531Z,-3.80
2023-01-30T05:14:49.623Z,-3.50
2023-01-30T05:17:16.924Z,-3.30
2023-01-30T05:19:44.065Z,-3.20
2023-01-30T05:22:12.393Z,-3.20
2023-01-30T05:24:39.616Z,-3.10
2023-01-30T05:27:10.003Z,-2.70
2023-01-30T05:29:40.705Z,-2.60
2023-01-30T05:32:10.602Z,-2.30
2023-01-30T05:34:37.689Z,-2.00
2023-01-30T05:37:07.873Z,-1.20
2023-01-30T05:39:36.402Z,-1.20
2023-01-30T05:42:04.160Z,-0.80
2023-01-30T05:44:31.500Z,-0.60
2023-01-30T05:46:58.818Z,-0.40
2023-01-30T05:49:27.420Z,-0.30
2023-01-30T05:51:54.736Z,-0.20
2023-01-30T05:54:22.062Z,-0.20
2023-01-30T05:56:52.416Z,-0.10
2023-01-30T05:59:20.808Z,-0.10
2023-01-30T06:01:47.985Z,0.00
2023-01-30T06:04:15.262Z,0.10
2023-01-30T06:06:42.479Z,0.10
2023-01-30T06:09:11.305Z,0.20
2023-01-30T06:11:38.445Z,0.20
2023-01-30T06:14:05.776Z,0.40
2023-01-30T06:16:33.243Z,0.60
2023-01-30T06:19:00.737Z,0.70
2023-01-30T06:21:27.908Z,0.70
2023-01-30T06:23:55.130Z,0.80
2023-01-30T06:26:22.272Z,0.80
2023-01-30T06:28:49.889Z,0.90
2023-01-30T06:31:18.492Z,0.90
2023-01-30T06:33:49.502Z,0.90
2023-01-30T06:36:16.700Z,1.00
2023-01-30T06:38:43.787Z,0.90
2023-01-30T06:41:10.915Z,1.00
2023-01-30T06:43:38.187Z,1.00
2023-01-30T06:46:05.931Z,1.00
2023-01-30T06:48:33.170Z,1.00
2023-01-30T06:51:00.268Z,1.00
2023-01-30T06:53:30.582Z,1.10
2023-01-30T06:55:59.893Z,1.10
2023-01-30T06:58:30.087Z,1.10
2023-01-30T07:00:57.387Z,1.10
2023-01-30T07:03:24.829Z,1.20
2023-01-30T07:05:52.257Z,1.20
2023-01-30T07:08:19.702Z,1.30
2023-01-30T07:10:46.824Z,1.40
2023-01-30T07:13:14.248Z,1.40
2023-01-30T07:15:41.381Z,1.50
2023-01-30T07:18:08.575Z,1.50
2023-01-30T07:20:42.650Z,1.60
2023-01-30T07:23:10.156Z,1.70
2023-01-30T07:25:37.301Z,1.70
2023-01-30T07:28:04.824Z,1.60
2023-01-30T07:30:36.281Z,1.70
2023-01-30T07:33:06.785Z,1.80
2023-01-30T07:35:37.128Z,1.80
2023-01-30T07:38:05.924Z,1.80
2023-01-30T07:40:33.553Z,1.80
2023-01-30T07:43:07.778Z,1.90
2023-01-30T07:45:42.440Z,1.90
2023-01-30T07:48:12.808Z,2.00
2023-01-30T07:50:40.493Z,2.00
2023-01-30T07:53:12.496Z,2.10
2023-01-30T07:55:40.038Z,2.10
2023-01-30T07:58:15.686Z,2.10
2023-01-30T08:00:43.612Z,2.20
2023-01-30T08:03:15.780Z,2.30
2023-01-30T08:05:44.319Z,2.30
2023-01-30T08:08:11.605Z,2.30
2023-01-30T08:10:38.749Z,2.40
2023-01-30T08:13:05.829Z,2.40
2023-01-30T08:15:33.625Z,2.40
2023-01-30T08:18:01.820Z,2.50
2023-01-30T08:20:29.171Z,2.50
2023-01-30T08:22:58.347Z,2.50
2023-01-30T08:25:30.192Z,2.60
2023-01-30T08:28:00.634Z,2.60
2023-01-30T08:30:30.649Z,2.60
2023-01-30T08:32:58.687Z,2.70
2023-01-30T08:35:25.965Z,2.70
2023-01-30T08:37:53.221Z,2.70
2023-01-30T08:40:20.956Z,2.80
2023-01-30T08:42:48.219Z,2.90
2023-01-30T08:45:15.525Z,3.00
2023-01-30T08:47:42.918Z,3.10
2023-01-30T08:50:11.253Z,3.20
2023-01-30T08:52:41.480Z,3.30
2023-01-30T08:55:09.590Z,3.40
2023-01-30T08:57:37.241Z,3.50
2023-01-30T09:00:09.307Z,3.60
2023-01-30T09:02:36.673Z,3.70
2023-01-30T09:05:05.897Z,3.80
2023-01-30T09:07:33.541Z,3.80
2023-01-30T09:10:00.911Z,3.90
2023-01-30T09:12:28.476Z,3.90
2023-01-30T09:15:00.488Z,4.00
2023-01-30T09:17:27.671Z,4.00
2023-01-30T09:19:55.403Z,4.00
2023-01-30T09:22:22.643Z,4.00
2023-01-30T09:24:49.818Z,4.00
2023-01-30T09:27:17.248Z,4.00
2023-01-30T09:29:45.405Z,4.00
2023-01-30T09:32:12.702Z,4.10
2023-01-30T09:34:39.968Z,4.10
2023-01-30T09:37:08.288Z,4.10
2023-01-30T09:39:38.806Z,4.00
2023-01-30T09:42:38.163Z,4.00
2023-01-30T09:45:31.221Z,3.90
2023-01-30T09:48:37.525Z,3.90
2023-01-30T09:51:38.053Z,3.90
2023-01-30T09:54:24.426Z,3.90
2023-01-30T09:57:21.651Z,3.90
2023-01-30T10:00:19.925Z,3.90
2023-01-30T10:02:56.408Z,4.00
2023-01-30T10:05:49.917Z,4.00
2023-01-30T10:08:47.598Z,4.10
2023-01-30T10:12:01.126Z,4.30
2023-01-30T10:15:10.353Z,4.50
2023-01-30T10:18:16.303Z,4.50
2023-01-30T10:20:52.219Z,4.40
2023-01-30T10:23:30.956Z,4.40
2023-01-30T10:26:31.802Z,4.40
2023-01-30T10:29:08.453Z,4.50
2023-01-30T10:32:20.667Z,4.60
2023-01-30T10:34:55.367Z,4.60
2023-01-30T10:37:33.307Z,4.70
2023-01-30T10:40:35.709Z,4.70
2023-01-30T10:43:15.914Z,4.70
2023-01-30T10:46:07.169Z,4.80
2023-01-30T10:49:03.273Z,4.80
2023-01-30T10:51:59.335Z,4.90
2023-01-30T10:54:50.451Z,4.80
2023-01-30T10:57:44.706Z,4.80
2023-01-30T11:00:49.012Z,4.80
2023-01-30T11:03:35.646Z,4.80
2023-01-30T11:06:16.951Z,4.80
2023-01-30T11:08:47.415Z,4.90
2023-01-30T11:11:31.893Z,5.20
2023-01-30T11:14:17.748Z,5.50
2023-01-30T11:16:54.617Z,5.90
2023-01-30T11:19:35.369Z,6.10
2023-01-30T11:22:06.391Z,6.20
2023-01-30T11:24:45.916Z,6.40
2023-01-30T11:27:30.793Z,6.60
2023-01-30T11:30:17.238Z,7.00
2023-01-30T11:32:48.792Z,7.10
2023-01-30T11:35:15.981Z,7.20
2023-01-30T11:37:45.524Z,7.00
2023-01-30T11:40:19.175Z,6.80
2023-01-30T11:43:10.276Z,6.90
2023-01-30T11:45:50.203Z,7.00
2023-01-30T11:48:33.092Z,7.10
2023-01-30T11:51:13.419Z,7.30
2023-01-30T11:53:49.567Z,7.30
2023-01-30T11:56:22.430Z,7.40
2023-01-30T11:59:02.064Z,7.50
2023-01-30T12:01:37.204Z,7.70
2023-01-30T12:04:12.113Z,7.80
2023-01-30T12:06:42.865Z,8.10
2023-01-30T12:11:59.066Z,8.40
2023-01-30T12:14:46.072Z,8.20
2023-01-30T12:17:27.466Z,7.90
2023-01-30T12:20:17.689Z,7.80
2023-01-30T12:23:08.501Z,7.50
2023-01-30T12:26:12.717Z,7.40
2023-01-30T12:29:14.106Z,7.20
2023-01-30T12:31:50.370Z,6.90
2023-01-30T12:34:27.222Z,6.70
2023-01-30T12:37:08.755Z,6.50
2023-01-30T12:40:16.121Z,6.30
2023-01-30T12:42:54.891Z,6.20
2023-01-30T12:45:32.229Z,6.00
2023-01-30T12:48:14.782Z,5.90
2023-01-30T12:50:54.926Z,5.80
2023-01-30T12:53:53.380Z,5.70
2023-01-30T12:56:49.842Z,5.60
2023-01-30T12:59:22.667Z,5.60
2023-01-30T13:02:12.977Z,5.60
2023-01-30T13:05:04.085Z,5.50
2023-01-30T13:07:52.047Z,5.40
2023-01-30T13:11:04.266Z,5.20
2023-01-30T13:14:04.290Z,5.20
2023-01-30T13:17:27.427Z,5.10
2023-01-30T13:20:16.884Z,5.10
2023-01-30T13:22:53.282Z,5.10
2023-01-30T13:25:36.652Z,5.00
2023-01-30T13:28:38.196Z,4.90
2023-01-30T13:31:14.444Z,4.80
2023-01-30T13:33:45.411Z,4.70
2023-01-30T13:36:25.811Z,4.70
2023-01-30T13:39:09.484Z,4.70
2023-01-30T13:41:45.117Z,4.60
2023-01-30T13:44:30.967Z,4.50
2023-01-30T13:47:20.088Z,4.40
2023-01-30T13:50:34.674Z,4.40
2023-01-30T13:53:40.529Z,4.40
2023-01-30T13:56:42.999Z,4.30
2023-01-30T14:00:10.624Z,4.30
2023-01-30T14:02:37.893Z,4.30
2023-01-30T14:05:05.991Z,4.30
2023-01-30T14:07:42.846Z,4.20
2023-01-30T14:10:09.931Z,4.20
2023-01-30T14:12:48.479Z,4.20
2023-01-30T14:15:16.260Z,4.10
2023-01-30T14:18:02.386Z,4.10
2023-01-30T14:20:36.467Z,4.10
2023-01-30T14:23:25.716Z,4.10
2023-01-30T14:25:58.527Z,4.10
2023-01-30T14:28:28.724Z,4.10
2023-01-30T14:30:59.220Z,4.10
2023-01-30T14:33:26.259Z,4.20
2023-01-30T14:36:02.967Z,4.20
2023-01-30T14:38:40.779Z,4.20
2023-01-30T14:41:07.862Z,4.30
2023-01-30T14:43:44.053Z,4.30
2023-01-30T14:46:19.844Z,4.40
2023-01-30T14:49:01.051Z,4.50
2023-01-30T14:51:40.484Z,4.50
2023-01-30T14:54:14.550Z,4.50
2023-01-30T14:56:51.327Z,4.60
2023-01-30T15:00:06.755Z,4.70
2023-01-30T15:02:49.144Z,4.80
2023-01-30T15:05:26.292Z,4.70
2023-01-30T15:07:59.230Z,4.80
2023-01-30T15:11:06.726Z,4.80
2023-01-30T15:13:49.049Z,4.80
2023-01-30T15:16:41.263Z,4.80
2023-01-30T15:19:17.131Z,4.70
2023-01-30T15:22:03.486Z,4.70
2023-01-30T15:25:09.737Z,4.70
2023-01-30T15:28:15.115Z,4.70
2023-01-30T15:30:58.311Z,4.60
2023-01-30T15:33:31.370Z,4.60
2023-01-30T15:36:17.130Z,4.60
2023-01-30T15:38:44.401Z,4.50
2023-01-30T15:41:12.184Z,4.50
2023-01-30T15:43:47.319Z,4.50
2023-01-30T15:46:42.997Z,4.40
2023-01-30T15:49:43.808Z,4.40
2023-01-30T15:52:20.009Z,4.40
2023-01-30T15:54:54.212Z,4.40
2023-01-30T15:57:35.813Z,4.30
2023-01-30T16:00:07.635Z,4.30
2023-01-30T16:02:37.468Z,4.30
2023-01-30T16:05:28.834Z,4.30
2023-01-30T16:07:57.977Z,4.30
2023-01-30T16:10:29.402Z,4.40
2023-01-30T16:13:02.217Z,4.40
2023-01-30T16:15:50.337Z,4.50
2023-01-30T16:18:38.492Z,4.60
2023-01-30T16:21:21.101Z,4.60
2023-01-30T16:24:05.302Z,4.60
2023-01-30T16:26:35.900Z,4.60
2023-01-30T16:29:08.345Z,4.60
2023-01-30T16:31:40.146Z,4.70
2023-01-30T16:34:39.882Z,4.70
2023-01-30T16:37:27.977Z,4.70
2023-01-30T16:40:23.350Z,4.70
2023-01-30T16:43:26.204Z,4.70
2023-01-30T16:45:54.034Z,4.70
2023-01-30T16:48:37.216Z,4.70
2023-01-30T16:51:20.499Z,4.70
2023-01-30T16:53:59.861Z,4.70
2023-01-30T16:56:29.439Z,4.70
2023-01-30T16:59:04.881Z,4.70
2023-01-30T17:01:39.858Z,4.80
2023-01-30T17:04:22.382Z,4.70
2023-01-30T17:07:04.086Z,4.70
2023-01-30T17:09:45.944Z,4.70
2023-01-30T17:12:31.570Z,4.70
2023-01-30T17:15:20.112Z,4.80
2023-01-30T17:17:48.513Z,4.80
2023-01-30T17:20:16.715Z,4.80
2023-01-30T17:22:49.024Z,4.70
2023-01-30T17:25:39.233Z,4.70
2023-01-30T17:28:09.365Z,4.70
2023-01-30T17:30:36.743Z,4.60
2023-01-30T17:33:04.381Z,4.60
2023-01-30T17:35:31.893Z,4.60
2023-01-30T17:38:05.322Z,4.60
2023-01-30T17:40:38.271Z,4.50
2023-01-30T17:43:06.276Z,4.50
2023-01-30T17:45:34.379Z,4.40
2023-01-30T17:48:03.057Z,4.40
2023-01-30T17:50:32.595Z,4.40
2023-01-30T17:53:03.604Z,4.40
2023-01-30T17:55:35.714Z,4.40
2023-01-30T17:58:03.880Z,4.40
2023-01-30T18:00:32.553Z,4.40
2023-01-30T18:03:00.929Z,4.30
2023-01-30T18:05:29.555Z,4.40
2023-01-30T18:07:57.729Z,4.30
2023-01-30T18:10:26.366Z,4.40
2023-01-30T18:12:54.587Z,4.40
2023-01-30T18:15:22.372Z,4.50
2023-01-30T18:17:52.730Z,4.50
2023-01-30T18:20:25.277Z,4.50
2023-01-30T18:22:53.553Z,4.50
2023-01-30T18:25:22.204Z,4.50
2023-01-30T18:27:50.596Z,4.50
2023-01-30T18:30:19.751Z,4.50
2023-01-30T18:32:53.842Z,4.60
2023-01-30T18:35:25.019Z,4.60
2023-01-30T18:37:53.326Z,4.60
2023-01-30T18:40:24.290Z,4.60
2023-01-30T18:42:54.303Z,4.60
2023-01-30T18:45:24.004Z,4.60
2023-01-30T18:48:02.625Z,4.70
2023-01-30T18:50:32.337Z,4.70
2023-01-30T18:53:03.618Z,4.70
2023-01-30T18:55:33.987Z,4.80
2023-01-30T18:58:04.653Z,4.90
2023-01-30T19:00:35.164Z,4.90
2023-01-30T19:03:02.812Z,4.90
2023-01-30T19:05:31.509Z,4.90
2023-01-30T19:07:59.817Z,4.90
2023-01-30T19:10:30.312Z,5.00
2023-01-30T19:13:16.838Z,4.90
2023-01-30T19:15:45.429Z,4.90
2023-01-30T19:18:14.943Z,5.00
2023-01-30T19:20:42.907Z,5.00
2023-01-30T19:23:11.112Z,5.00
2023-01-30T19:25:39.359Z,5.00
2023-01-30T19:28:07.458Z,5.00
2023-01-30T19:30:38.939Z,5.10
2023-01-30T19:33:08.361Z,5.10
2023-01-30T19:35:37.007Z,5.00
2023-01-30T19:38:05.364Z,5.00
2023-01-30T19:40:33.639Z,5.00
2023-01-30T19:43:10.478Z,4.90
2023-01-30T19:45:44.075Z,4.80
2023-01-30T19:48:12.453Z,4.70
2023-01-30T19:50:41.066Z,4.70
2023-01-30T19:53:10.543Z,4.70
2023-01-30T19:55:39.506Z,4.70
2023-01-30T19:58:08.195Z,4.70
2023-01-30T20:00:37.497Z,4.70
2023-01-30T20:03:05.765Z,4.70
2023-01-30T20:05:34.155Z,4.70
2023-01-30T20:08:04.354Z,4.80
2023-01-30T20:10:34.278Z,4.80
2023-01-30T20:13:03.067Z,4.80
2023-01-30T20:15:32.322Z,4.80
2023-01-30T20:18:01.204Z,4.80
2023-01-30T20:20:36.590Z,4.90
2023-01-30T20:23:05.014Z,4.80
2023-01-30T20:25:37.176Z,4.80
2023-01-30T20:28:08.265Z,4.80
2023-01-30T20:30:40.450Z,4.80
2023-01-30T20:33:08.887Z,4.80
2023-01-30T20:35:39.731Z,4.80
2023-01-30T20:38:09.459Z,4.80
2023-01-30T20:40:37.772Z,4.80
2023-01-30T20:43:07.193Z,4.70
2023-01-30T20:45:35.749Z,4.80
2023-01-30T20:48:06.196Z,4.70
2023-01-30T20:50:35.045Z,4.70
2023-01-30T20:53:03.067Z,4.70
2023-01-30T20:55:32.338Z,4.70
2023-01-30T20:58:02.468Z,4.70
2023-01-30T21:00:30.309Z,4.70
2023-01-30T21:02:58.503Z,4.80
2023-01-30T21:05:26.492Z,4.80
2023-01-30T21:07:54.297Z,4.80
2023-01-30T21:10:24.574Z,4.80
2023-01-30T21:12:52.355Z,4.80
2023-01-30T21:15:20.880Z,4.80
2023-01-30T21:17:49.129Z,4.80
2023-01-30T21:20:18.068Z,4.70
2023-01-30T21:22:45.484Z,4.70
2023-01-30T21:25:14.276Z,4.60
2023-01-30T21:27:42.167Z,4.70
2023-01-30T21:30:10.281Z,4.70
2023-01-30T21:32:39.192Z,4.70
2023-01-30T21:35:07.119Z,4.60
2023-01-30T21:37:53.386Z,4.60
2023-01-30T21:40:39.266Z,4.70
2023-01-30T21:43:14.792Z,4.60
2023-01-30T21:45:43.249Z,4.60
2023-01-30T21:48:10.611Z,4.70
2023-01-30T21:50:41.056Z,4.60
2023-01-30T21:53:08.187Z,4.60
2023-01-30T21:55:38.187Z,4.60
2023-01-30T21:58:05.488Z,4.60
2023-01-30T22:00:32.636Z,4.60
2023-01-30T22:02:59.858Z,4.60
2023-01-30T22:05:27.425Z,4.60
2023-01-30T22:07:54.542Z,4.60
2023-01-30T22:10:21.887Z,4.60
2023-01-30T22:12:49.140Z,4.60
2023-01-30T22:15:16.622Z,4.60
2023-01-30T22:17:43.870Z,4.60
2023-01-30T22:20:12.283Z,4.60
2023-01-30T22:22:42.610Z,4.70
2023-01-30T22:25:10.137Z,4.70
2023-01-30T22:27:38.369Z,4.70
2023-01-30T22:30:06.255Z,4.70
2023-01-30T22:32:33.400Z,4.70
2023-01-30T22:35:03.545Z,4.70
2023-01-30T22:37:30.873Z,4.80
2023-01-30T22:39:58.082Z,4.80
2023-01-30T22:42:25.536Z,4.80
2023-01-30T22:44:55.556Z,4.80
2023-01-30T22:47:22.829Z,4.80
2023-01-30T22:49:49.951Z,4.90
2023-01-30T22:52:17.120Z,4.90
2023-01-30T22:54:44.207Z,4.90
2023-01-30T22:57:11.336Z,4.90
2023-01-30T22:59:39.266Z,5.00
2023-01-30T23:02:10.264Z,5.00
2023-01-30T23:04:37.449Z,4.90
2023-01-30T23:07:04.682Z,5.00
2023-01-30T23:09:32.007Z,5.00
2023-01-30T23:12:37.952Z,5.00
2023-01-30T23:15:05.942Z,5.10
2023-01-30T23:17:51.659Z,5.10
2023-01-30T23:20:22.360Z,5.00
2023-01-30T23:22:52.345Z,5.00
2023-01-30T23:25:20.469Z,5.10
2023-01-30T23:27:47.833Z,5.10
2023-01-30T23:30:15.243Z,5.10
2023-01-30T23:32:42.466Z,5.10
2023-01-30T23:35:09.801Z,5.00
2023-01-30T23:37:59.027Z,5.00
2023-01-30T23:40:26.323Z,5.00
2023-01-30T23:42:53.428Z,5.00
2023-01-30T23:45:20.801Z,4.90
2023-01-30T23:47:48.166Z,5.00
2023-01-30T23:50:15.970Z,5.00
2023-01-30T23:52:44.496Z,5.00
2023-01-30T23:55:14.634Z,5.00
2023-01-30T23:57:41.802Z,5.00
